Traditional Chinese Simplified Chinese
Climatological Information for Winter Commences recorded at Hong Kong Observatory
dotted-line

Climatological Information for Winter Commences recorded at
Hong Kong Observatory
(Period: 1947 - 2016)

Go To FROSTGo To LIGHT SNOW
Day
(yyyy-mm-dd)
Air Temperature Daily
Relative
Humidity
(%)
Daily
Total
Rainfall
(mm)
Daily
Total
Cloud Amount
(%)
Maximum
(Degree C)
Mean
(Degree C)
Minimum
(Degree C)
1947-11-08 28.9 24.8 20.8 57 - ###
1948-11-07 24.3 21.3 18.9 64 - ###
1949-11-08 28.3 24.7 22.1 77 - 65
1950-11-08 25.2 21.0 17.6 60 - 48
1951-11-08 25.1 21.6 18.6 60 - 53
1952-11-07 24.8 22.3 20.4 79 - 44
1953-11-08 25.5 24.0 22.8 88 0.1 84
1954-11-08 27.4 23.8 21.7 90 0.2 79
1955-11-08 23.1 21.1 19.2 64 - 61
1956-11-07 25.0 21.3 17.8 68 0.1 42
1957-11-08 24.4 22.6 21.1 73 - 25
1958-11-08 24.9 22.5 20.8 76 - 76
1959-11-08 26.1 23.8 21.9 75 - 14
1960-11-07 24.4 22.3 20.6 87 - 13
1961-11-07 25.4 23.3 22.1 75 - 31
1962-11-08 26.9 23.9 21.3 61 - 84
1963-11-08 28.4 25.2 23.1 78 Trace 60
1964-11-07 26.8 23.1 19.7 66 Trace 38
1965-11-07 27.7 25.7 24.4 78 Trace 74
1966-11-08 27.5 24.5 22.6 72 - 17
1967-11-08 25.4 23.8 22.8 85 0.7 85
1968-11-07 25.5 22.9 20.7 79 Trace 71
1969-11-07 24.2 20.9 18.0 58 - 32
1970-11-08 24.5 22.5 21.1 62 Trace 93
1971-11-08 25.9 23.0 21.5 70 Trace 30
1972-11-07 25.3 24.3 23.2 72 Trace 92
1973-11-07 25.0 22.2 21.0 68 - 77
1974-11-08 28.6 25.5 23.8 66 1.5 85
1975-11-08 23.6 21.9 20.4 80 Trace 72
1976-11-07 24.6 21.6 19.1 73 - 36
1977-11-07 27.3 24.7 22.9 81 - 49
1978-11-08 25.0 22.9 21.3 77 - 80
1979-11-08 26.3 23.9 22.1 76 Trace 80
1980-11-07 29.3 25.3 22.2 60 - 51
1981-11-07 21.2 19.5 17.1 73 - 85
1982-11-08 25.2 23.9 22.8 85 3.2 92
1983-11-08 25.9 23.2 21.5 74 - 42
1984-11-07 26.5 23.9 22.1 80 - 29
1985-11-07 26.0 24.6 23.6 78 - 67
1986-11-08 23.6 21.6 19.0 72 - 74
1987-11-08 22.9 20.6 18.2 68 - 67
1988-11-07 23.9 21.4 19.1 65 - 24
1989-11-07 27.2 25.0 23.3 79 - 58
1990-11-08 25.0 24.5 23.9 88 0.5 89
1991-11-08 27.0 24.0 22.0 72 Trace 41
1992-11-07 24.7 22.6 21.5 77 - 39
1993-11-07 27.8 25.0 23.4 84 0.3 54
1994-11-07 26.3 23.3 20.8 62 - 2
1995-11-08 27.4 22.5 20.7 50 - 81
1996-11-07 29.1 26.1 24.5 71 - 28
1997-11-07 24.2 21.8 19.6 63 - 46
1998-11-07 25.6 23.3 21.1 65 - 6
1999-11-08 27.7 24.9 23.5 72 Trace 88
2000-11-07 24.1 23.2 22.2 89 23.5 95
2001-11-07 24.1 22.7 21.4 67 Trace 63
2002-11-07 26.9 23.6 21.0 64 - 2
2003-11-08 25.2 24.5 23.0 92 32.7 89
2004-11-07 25.1 23.8 22.8 77 Trace 45
2005-11-07 28.5 26.1 24.9 88 - 72
2006-11-07 26.6 23.8 21.5 61 - 18
2007-11-08 23.0 21.4 19.1 70 Trace 88
2008-11-07 29.4 26.9 25.4 82 Trace 57
2009-11-07 27.6 25.0 23.8 79 - 82
2010-11-07 25.9 22.1 19.8 77 - 49
2011-11-08 24.3 22.7 21.9 94 13.9 89
2012-11-07 24.3 23.2 22.5 76 - 80
2013-11-07 26.7 24.1 23.0 80 - 70
2014-11-07 24.0 22.9 22.1 90 11.8 88
2015-11-08 28.7 26.5 25.5 84 Trace 70
2016-11-07 28.4 25.3 23.4 81 - 52
Maximum
29.4 26.9 25.5 94 32.7 95
Minimum
21.2 19.5 17.1 50 - 2
Normals
(1961-1990)
25.7 23.3 21.5 73 0.2 62
Normals
(1971-2000)
25.7 23.3 21.6 73 1.0 59
Normals
(1981-2010)
25.8 23.5 21.8 74 2.0 56
### means data not available
Column's Maximum in light red background colour
Column's Minimum in light blue background colour